Time,TemperatureF,DewpointF,PressureIn,WindDirection,WindDirectionDegrees,WindSpeedMPH,WindSpeedGustMPH,Humidity,HourlyPrecipIn,Conditions,Clouds,dailyrainin,SolarRadiationWatts/m^2,SoftwareType,DateUTC
2013-03-21 00:00:00,62.9,59.9,29.91,NW,321,3.0,3.0,90,0.00,,,0.00,0,Wunderground v.1.15,2013-03-21 04:00:00,
2013-03-21 00:30:00,63.1,59.5,29.90,NW,325,8.0,8.0,88,0.00,,,0.00,0,Wunderground v.1.15,2013-03-21 04:30:00,
2013-03-21 01:00:00,62.8,59.8,29.90,NW,305,6.0,9.0,90,0.00,,,0.00,0,Wunderground v.1.15,2013-03-21 05:00:00,
2013-03-21 01:30:00,63.0,60.0,29.90,WNW,302,7.0,7.0,90,0.00,,,0.00,0,Wunderground v.1.15,2013-03-21 05:30:00,
2013-03-21 02:00:00,62.8,60.1,29.90,NW,304,8.0,12.0,91,0.00,,,0.00,0,Wunderground v.1.15,2013-03-21 06:00:00,
2013-03-21 02:30:00,62.7,59.7,29.90,NNW,333,11.0,11.0,90,0.00,,,0.00,0,Wunderground v.1.15,2013-03-21 06:30:00,
2013-03-21 03:00:00,62.6,59.6,29.90,WNW,300,16.0,16.0,90,0.00,,,0.00,0,Wunderground v.1.15,2013-03-21 07:00:00,
2013-03-21 03:30:00,62.5,59.5,29.89,WNW,303,18.0,20.0,90,0.00,,,0.00,0,Wunderground v.1.15,2013-03-21 07:30:00,
2013-03-21 04:00:00,62.3,59.3,29.89,NW,323,21.0,21.0,90,0.00,,,0.00,0,Wunderground v.1.15,2013-03-21 08:00:00,
2013-03-21 04:30:00,62.3,58.1,29.89,NW,325,19.0,19.0,86,0.00,,,0.00,0,Wunderground v.1.15,2013-03-21 08:30:00,
2013-03-21 05:00:00,62.1,55.2,29.90,NNW,329,20.0,20.0,78,0.00,,,0.00,0,Wunderground v.1.15,2013-03-21 09:00:00,
2013-03-21 05:30:00,61.7,54.8,29.90,NNW,342,18.0,18.0,78,0.00,,,0.00,0,Wunderground v.1.15,2013-03-21 09:30:00,
2013-03-21 06:00:00,61.5,54.2,29.91,NNW,340,15.0,15.0,77,0.00,,,0.00,0,Wunderground v.1.15,2013-03-21 10:00:00,
2013-03-21 06:30:00,61.4,53.8,29.92,NNW,334,16.0,18.0,76,0.00,,,0.00,0,Wunderground v.1.15,2013-03-21 10:30:00,
2013-03-21 07:00:00,59.8,51.5,29.93,NE,42,12.0,18.0,74,0.00,,,0.00,0,Wunderground v.1.15,2013-03-21 11:00:00,
2013-03-21 07:30:00,57.9,46.2,29.95,North,5,12.0,12.0,65,0.00,,,0.00,5,Wunderground v.1.15,2013-03-21 11:30:00,
2013-03-21 08:00:00,57.1,45.4,29.96,NNE,32,9.0,9.0,65,0.00,,,0.00,44,Wunderground v.1.15,2013-03-21 12:00:00,
2013-03-21 08:30:00,56.6,45.4,29.97,NNE,21,7.0,8.0,66,0.00,,,0.00,33,Wunderground v.1.15,2013-03-21 12:30:00,
2013-03-21 09:00:00,56.9,43.6,29.98,NE,34,10.0,10.0,61,0.00,,,0.00,237,Wunderground v.1.15,2013-03-21 13:00:00,
2013-03-21 09:30:00,57.8,40.8,29.97,NE,38,12.0,19.0,53,0.00,,,0.00,371,Wunderground v.1.15,2013-03-21 13:30:00,
2013-03-21 10:00:00,58.8,38.6,29.98,NNE,20,11.0,12.0,47,0.00,,,0.00,478,Wunderground v.1.15,2013-03-21 14:00:00,
2013-03-21 10:30:00,59.8,37.2,29.99,ENE,65,11.0,11.0,43,0.00,,,0.00,582,Wunderground v.1.15,2013-03-21 14:30:00,
2013-03-21 11:00:00,60.6,38.0,29.99,NE,36,9.0,9.0,43,0.00,,,0.00,677,Wunderground v.1.15,2013-03-21 15:00:00,
2013-03-21 11:30:00,61.4,34.9,29.99,North,360,12.0,13.0,37,0.00,,,0.00,761,Wunderground v.1.15,2013-03-21 15:30:00,
2013-03-21 12:00:00,61.6,35.1,29.99,North,351,12.0,16.0,37,0.00,,,0.00,830,Wunderground v.1.15,2013-03-21 16:00:00,
2013-03-21 12:30:00,61.7,37.7,29.99,North,360,11.0,11.0,41,0.00,,,0.00,877,Wunderground v.1.15,2013-03-21 16:30:00,
2013-03-21 13:00:00,61.3,35.5,29.99,NNW,338,12.0,19.0,38,0.00,,,0.00,914,Wunderground v.1.15,2013-03-21 17:00:00,
2013-03-21 13:30:00,61.3,36.8,29.97,NW,309,13.0,13.0,40,0.00,,,0.00,928,Wunderground v.1.15,2013-03-21 17:30:00,
2013-03-21 14:00:00,61.6,37.0,29.95,NW,321,12.0,14.0,40,0.00,,,0.00,923,Wunderground v.1.15,2013-03-21 18:00:00,
2013-03-21 14:30:00,62.3,38.9,29.94,NW,319,11.0,11.0,42,0.00,,,0.00,904,Wunderground v.1.15,2013-03-21 18:30:00,
2013-03-21 15:00:00,62.5,40.3,29.93,NW,307,10.0,13.0,44,0.00,,,0.00,863,Wunderground v.1.15,2013-03-21 19:00:00,
2013-03-21 15:30:00,62.7,41.0,29.92,NW,306,13.0,13.0,45,0.00,,,0.00,809,Wunderground v.1.15,2013-03-21 19:30:00,
2013-03-21 16:00:00,62.6,41.5,29.92,WNW,291,15.0,15.0,46,0.00,,,0.00,738,Wunderground v.1.15,2013-03-21 20:00:00,
2013-03-21 16:30:00,62.7,44.3,29.92,NW,311,13.0,15.0,51,0.00,,,0.00,657,Wunderground v.1.15,2013-03-21 20:30:00,
2013-03-21 17:00:00,62.9,42.9,29.92,WNW,299,14.0,14.0,48,0.00,,,0.00,557,Wunderground v.1.15,2013-03-21 21:00:00,
2013-03-21 17:30:00,62.4,45.0,29.91,WNW,296,14.0,16.0,53,0.00,,,0.00,450,Wunderground v.1.15,2013-03-21 21:30:00,
2013-03-21 18:00:00,62.3,45.4,29.93,WNW,298,14.0,14.0,54,0.00,,,0.00,345,Wunderground v.1.15,2013-03-21 22:00:00,
2013-03-21 18:30:00,61.8,46.9,29.93,WNW,300,15.0,15.0,58,0.00,,,0.00,232,Wunderground v.1.15,2013-03-21 22:30:00,
2013-03-21 19:00:00,61.0,47.4,29.92,NW,315,14.0,14.0,61,0.00,,,0.00,91,Wunderground v.1.15,2013-03-21 23:00:00,
2013-03-21 19:30:00,60.5,46.5,29.93,WNW,296,13.0,13.0,60,0.00,,,0.00,18,Wunderground v.1.15,2013-03-21 23:30:00,
2013-03-21 20:00:00,60.0,47.8,29.95,NW,317,15.0,15.0,64,0.00,,,0.00,0,Wunderground v.1.15,2013-03-22 00:00:00,
2013-03-21 20:30:00,59.8,47.2,29.96,NW,322,12.0,13.0,63,0.00,,,0.00,0,Wunderground v.1.15,2013-03-22 00:30:00,
2013-03-21 21:00:00,59.9,46.0,29.96,NW,312,10.0,10.0,60,0.00,,,0.00,0,Wunderground v.1.15,2013-03-22 01:00:00,
2013-03-21 21:30:00,59.9,45.5,29.97,NW,313,8.0,9.0,59,0.00,,,0.00,0,Wunderground v.1.15,2013-03-22 01:30:00,
2013-03-21 22:00:00,60.0,44.3,29.97,NNW,332,8.0,8.0,56,0.00,,,0.00,0,Wunderground v.1.15,2013-03-22 02:00:00,
2013-03-21 22:30:00,60.1,44.3,29.97,NW,316,4.0,4.0,56,0.00,,,0.00,0,Wunderground v.1.15,2013-03-22 02:30:00,
2013-03-21 23:00:00,60.0,41.8,29.97,NNW,336,0.0,0.0,51,0.00,,,0.00,0,Wunderground v.1.15,2013-03-22 03:00:00,
2013-03-21 23:30:00,59.8,41.1,29.97,North,355,0.0,0.0,50,0.00,,,0.00,0,Wunderground v.1.15,2013-03-22 03:30:00,